| Date | Time | Temp. (oF) | Dew Point (oF) | Rel. Hum. (%) | Press. (in.) | Wind Dir. | Wind Speed (mph) | Hourly Rainfall (in.) |
|
|---|---|---|---|---|---|---|---|---|---|
| 1 | 04/24 | 00:00 | 48 | 46 | 96 | 29.34 | W | 10 | 0.00 |
| 2 | 04/23 | 23:00 | 51 | 50 | 100 | 29.36 | W | 3 | 0.00 |
| 3 | 04/23 | 22:00 | 52 | 51 | 100 | 29.37 | WSW | 4 | 0.05 |
| 4 | 04/23 | 21:00 | 53 | 53 | 100 | 29.36 | WNW | 6 | 0.01 |
| 5 | 04/23 | 20:00 | 54 | 54 | 100 | 29.32 | N | 8 | 0.46 |
| 6 | 04/23 | 19:00 | 62 | 59 | 91 | 29.33 | SW | 11 | 0.07 |
| 7 | 04/23 | 18:00 | 66 | 57 | 74 | 29.28 | SSE | 7 | 0.00 |
| 8 | 04/23 | 17:00 | 69 | 57 | 66 | 29.29 | SSE | 11 | 0.00 |
| 9 | 04/23 | 16:00 | 68 | 59 | 75 | 29.33 | S | 8 | 0.00 |
| 10 | 04/23 | 15:00 | 67 | 59 | 77 | 29.37 | SSE | 5 | 0.00 |
| 11 | 04/23 | 14:00 | 64 | 60 | 89 | 29.41 | SSW | 6 | 0.00 |
| 12 | 04/23 | 13:00 | 60 | 59 | 97 | 29.43 | SSE | 10 | 0.00 |
| 13 | 04/23 | 12:00 | 59 | 59 | 100 | 29.45 | SE | 5 | 0.00 |
| 14 | 04/23 | 11:00 | 56 | 55 | 100 | 29.46 | S | 8 | 0.01 |
| 15 | 04/23 | 10:00 | 54 | 54 | 100 | 29.47 | S | 7 | 0.00 |
| 16 | 04/23 | 09:00 | 52 | 51 | 100 | 29.48 | SE | 4 | 0.01 |
| 17 | 04/23 | 08:00 | 51 | 50 | 100 | 29.50 | E | 3 | 0.02 |
| 18 | 04/23 | 07:00 | 49 | 49 | 100 | 29.52 | S | 0 | 0.02 |
| 19 | 04/23 | 06:00 | 48 | 48 | 100 | 29.52 | ESE | 0 | 0.03 |
| 20 | 04/23 | 05:00 | 48 | 48 | 100 | 29.54 | ESE | 3 | 0.02 |
| 21 | 04/23 | 04:00 | 47 | 46 | 100 | 29.56 | E | 3 | 0.03 |
| 22 | 04/23 | 03:00 | 47 | 46 | 100 | 29.58 | E | 3 | 0.04 |
| 23 | 04/23 | 02:00 | 46 | 45 | 100 | 29.61 | ENE | 6 | 0.04 |
| 24 | 04/23 | 01:00 | 46 | 45 | 100 | 29.66 | ESE | 6 | 0.04 |